Time;durP1;ratioP1;P1;durP2;ratioP2;P2;SDS_P1;SDS_P2;PMS_P1;PMS_P2;Temp;Humidity;BMP_temperature;BMP_pressure;BME280_temperature;BME280_humidity;BME280_pressure;Samples;Min_cycle;Max_cycle;Signal;HPM_P1;HPM_P2
2022/05/23 00:02:06;;;;;;;10.15;2.87;;;;;;;;;;4420026;32;20436;-54
2022/05/23 00:04:32;;;;;;;4.43;2.60;;;;;;;;;;4420021;32;20356;-55
2022/05/23 00:06:58;;;;;;;2.90;2.40;;;;;;;;;;4417614;32;20227;-54
2022/05/23 00:09:24;;;;;;;3.55;2.20;;;;;;;;;;4420439;32;20290;-55
2022/05/23 00:11:50;;;;;;;4.80;2.17;;;;;;;;;;4420077;32;20320;-54
2022/05/23 00:14:16;;;;;;;2.58;2.37;;;;;;;;;;4427311;32;20608;-55
2022/05/23 00:16:45;;;;;;;2.70;2.10;;;;;;;;;;4435489;32;20244;-56
2022/05/23 00:19:12;;;;;;;4.10;3.00;;;;;;;;;;4405209;32;20297;-54
2022/05/23 00:21:40;;;;;;;5.57;2.72;;;;;;;;;;4404834;32;20565;-54
2022/05/23 00:24:09;;;;;;;6.80;3.78;;;;;;;;;;4405258;32;20692;-53
2022/05/23 00:26:35;;;;;;;2.85;2.50;;;;;;;;;;4404742;32;20190;-53
2022/05/23 00:29:01;;;;;;;6.35;4.10;;;;;;;;;;4404962;32;20563;-53
2022/05/23 00:31:27;;;;;;;5.65;3.35;;;;;;;;;;4404978;32;20287;-54
2022/05/23 00:36:36;;;;;;;4.87;3.25;;;;;;;;;;4419916;32;20267;-53
2022/05/23 00:39:03;;;;;;;7.20;2.90;;;;;;;;;;4419599;32;20307;-53
2022/05/23 00:44:20;;;;;;;8.63;3.05;;;;;;;;;;4419606;32;20308;-53
2022/05/23 00:47:17;;;;;;;5.15;3.20;;;;;;;;;;4404313;32;20255;-54
2022/05/23 00:49:43;;;;;;;3.58;2.80;;;;;;;;;;4401352;32;20225;-53
2022/05/23 00:52:23;;;;;;;3.62;2.70;;;;;;;;;;4404348;32;20225;-55
2022/05/23 00:54:50;;;;;;;7.25;2.97;;;;;;;;;;4408080;32;20224;-54
2022/05/23 00:57:20;;;;;;;9.18;2.97;;;;;;;;;;4419569;32;20275;-54
2022/05/23 00:59:46;;;;;;;4.45;2.72;;;;;;;;;;4419401;32;20217;-54
2022/05/23 01:02:13;;;;;;;10.52;2.65;;;;;;;;;;4419324;32;20251;-53
2022/05/23 01:04:39;;;;;;;7.53;2.92;;;;;;;;;;4419230;32;20231;-54
2022/05/23 01:07:06;;;;;;;5.40;2.65;;;;;;;;;;4405971;32;20248;-53
2022/05/23 01:09:32;;;;;;;5.50;2.72;;;;;;;;;;4403997;32;20243;-54
2022/05/23 01:11:59;;;;;;;9.55;3.03;;;;;;;;;;4405344;32;20229;-53
2022/05/23 01:14:26;;;;;;;9.95;3.50;;;;;;;;;;4419271;32;20240;-53
2022/05/23 01:16:52;;;;;;;8.70;3.15;;;;;;;;;;4418994;32;20217;-54
2022/05/23 01:19:17;;;;;;;4.72;3.47;;;;;;;;;;4419358;32;20664;-53
2022/05/23 01:21:59;;;;;;;6.43;2.92;;;;;;;;;;4419311;32;20262;-54
2022/05/23 01:24:29;;;;;;;7.68;2.87;;;;;;;;;;4405555;32;20290;-53
2022/05/23 01:26:56;;;;;;;4.53;2.30;;;;;;;;;;4419084;32;20649;-53
2022/05/23 01:29:23;;;;;;;6.68;2.80;;;;;;;;;;4418864;32;20217;-53
2022/05/23 01:31:48;;;;;;;4.65;2.60;;;;;;;;;;4418803;32;20235;-54
2022/05/23 01:34:14;;;;;;;3.80;2.72;;;;;;;;;;4419233;32;20296;-55
2022/05/23 01:36:39;;;;;;;7.47;2.92;;;;;;;;;;4418993;32;20201;-53
2022/05/23 01:39:04;;;;;;;7.40;3.45;;;;;;;;;;4418906;32;20259;-53
2022/05/23 01:41:31;;;;;;;4.47;2.58;;;;;;;;;;4419018;32;20325;-53
2022/05/23 01:43:56;;;;;;;3.20;2.17;;;;;;;;;;4403924;32;20607;-54
2022/05/23 01:46:22;;;;;;;3.22;2.72;;;;;;;;;;4405839;32;20205;-53
2022/05/23 01:48:48;;;;;;;8.25;4.03;;;;;;;;;;4403573;32;20299;-54
2022/05/23 01:51:13;;;;;;;4.70;3.20;;;;;;;;;;4407742;32;20244;-54
2022/05/23 01:53:39;;;;;;;2.90;2.45;;;;;;;;;;4418834;32;20241;-54
2022/05/23 01:56:05;;;;;;;6.75;2.95;;;;;;;;;;4418598;32;20299;-53
2022/05/23 02:01:17;;;;;;;3.42;2.15;;;;;;;;;;4418474;32;20283;-53
2022/05/23 02:03:44;;;;;;;3.70;2.10;;;;;;;;;;4418464;32;20350;-53
2022/05/23 02:06:10;;;;;;;6.00;2.90;;;;;;;;;;4414214;32;20625;-55
2022/05/23 02:08:36;;;;;;;6.35;3.55;;;;;;;;;;4418576;32;20240;-55
2022/05/23 02:11:03;;;;;;;7.78;6.97;;;;;;;;;;4418151;32;20889;-54
2022/05/23 02:13:31;;;;;;;8.73;5.55;;;;;;;;;;4418484;32;20573;-53
2022/05/23 02:15:57;;;;;;;12.05;7.43;;;;;;;;;;4418077;32;20231;-53
2022/05/23 02:18:22;;;;;;;8.10;6.57;;;;;;;;;;4418087;32;20229;-53
2022/05/23 02:20:48;;;;;;;9.30;5.35;;;;;;;;;;4418113;32;20217;-54
2022/05/23 02:23:13;;;;;;;16.15;7.32;;;;;;;;;;4418429;32;20257;-54
2022/05/23 02:25:39;;;;;;;9.02;6.90;;;;;;;;;;4417859;32;20322;-54
2022/05/23 02:28:04;;;;;;;9.05;4.35;;;;;;;;;;4418002;32;20567;-53
2022/05/23 02:30:30;;;;;;;5.90;3.10;;;;;;;;;;4418519;32;20261;-54
2022/05/23 02:32:55;;;;;;;5.55;3.15;;;;;;;;;;4417868;32;20229;-54
2022/05/23 02:35:21;;;;;;;4.07;2.78;;;;;;;;;;4418087;32;20599;-54
2022/05/23 02:37:47;;;;;;;6.18;3.62;;;;;;;;;;4417700;32;20304;-54
2022/05/23 02:40:13;;;;;;;7.93;3.35;;;;;;;;;;4413456;32;20562;-53
2022/05/23 02:42:39;;;;;;;7.03;3.70;;;;;;;;;;4402897;32;20238;-54
2022/05/23 02:45:08;;;;;;;5.60;3.25;;;;;;;;;;4408399;32;20255;-53
2022/05/23 02:47:34;;;;;;;9.77;3.37;;;;;;;;;;4417447;32;20285;-54
2022/05/23 02:49:59;;;;;;;3.28;2.35;;;;;;;;;;4417991;32;20547;-53
2022/05/23 02:52:25;;;;;;;7.60;3.15;;;;;;;;;;4417714;32;20264;-53
2022/05/23 02:54:50;;;;;;;3.87;2.45;;;;;;;;;;4417735;32;20338;-52
2022/05/23 02:57:16;;;;;;;5.37;3.33;;;;;;;;;;4417930;32;20257;-53
2022/05/23 02:59:41;;;;;;;6.20;3.08;;;;;;;;;;4417639;32;20278;-54
2022/05/23 03:04:51;;;;;;;13.85;3.58;;;;;;;;;;4432992;32;20554;-54
2022/05/23 03:07:17;;;;;;;5.32;3.53;;;;;;;;;;4403969;32;20252;-54
2022/05/23 03:09:45;;;;;;;3.22;2.85;;;;;;;;;;4403041;32;20225;-53
2022/05/23 03:12:11;;;;;;;7.00;2.95;;;;;;;;;;4401321;32;20401;-54
2022/05/23 03:14:37;;;;;;;8.80;3.90;;;;;;;;;;4402724;32;20214;-54
2022/05/23 03:17:05;;;;;;;4.68;3.15;;;;;;;;;;4402222;32;20260;-54
2022/05/23 03:19:30;;;;;;;4.47;3.33;;;;;;;;;;4402539;32;20291;-54
2022/05/23 03:27:25;;;;;;;5.68;4.65;;;;;;;;;;4417572;32;20338;-54
2022/05/23 03:29:51;;;;;;;17.50;11.85;;;;;;;;;;4417280;32;20491;-54
2022/05/23 03:32:17;;;;;;;25.65;16.77;;;;;;;;;;4418225;32;20237;-53
2022/05/23 03:34:42;;;;;;;30.25;16.50;;;;;;;;;;4420900;32;20217;-54
2022/05/23 03:37:08;;;;;;;24.25;15.18;;;;;;;;;;4420399;32;20281;-53
2022/05/23 03:39:37;;;;;;;26.00;17.55;;;;;;;;;;4420417;32;20240;-53
2022/05/23 03:42:02;;;;;;;27.20;17.55;;;;;;;;;;4420359;32;20581;-53
2022/05/23 03:44:28;;;;;;;34.65;16.37;;;;;;;;;;4419235;32;20233;-53
2022/05/23 03:46:54;;;;;;;27.52;15.30;;;;;;;;;;4404842;32;20254;-52
2022/05/23 03:49:19;;;;;;;24.63;13.95;;;;;;;;;;4416466;32;20205;-53
2022/05/23 03:51:45;;;;;;;13.18;9.73;;;;;;;;;;4420489;32;20214;-52
2022/05/23 03:54:10;;;;;;;10.32;6.53;;;;;;;;;;4420566;32;20521;-53
2022/05/23 03:56:36;;;;;;;12.65;10.95;;;;;;;;;;4420383;32;20200;-54
2022/05/23 03:59:01;;;;;;;14.87;11.12;;;;;;;;;;4422552;32;20228;-54
2022/05/23 04:01:28;;;;;;;18.98;10.88;;;;;;;;;;4435947;32;20280;-55
2022/05/23 04:03:54;;;;;;;16.52;10.75;;;;;;;;;;4435721;32;20228;-53
2022/05/23 04:06:19;;;;;;;20.80;9.25;;;;;;;;;;4427228;32;20239;-53
2022/05/23 04:08:45;;;;;;;15.02;11.52;;;;;;;;;;4420825;32;20249;-53
2022/05/23 04:11:10;;;;;;;14.35;10.35;;;;;;;;;;4420741;32;20299;-54
2022/05/23 04:13:36;;;;;;;10.20;8.38;;;;;;;;;;4416876;32;20238;-53
2022/05/23 04:16:03;;;;;;;15.32;6.90;;;;;;;;;;4404727;32;20204;-53
2022/05/23 04:18:28;;;;;;;9.10;5.62;;;;;;;;;;4414597;32;20290;-53
2022/05/23 04:20:58;;;;;;;4.35;3.20;;;;;;;;;;4419984;32;20205;-53
2022/05/23 04:23:24;;;;;;;9.25;4.95;;;;;;;;;;4420094;32;20227;-52
2022/05/23 04:25:50;;;;;;;6.82;4.53;;;;;;;;;;4420122;32;20235;-53
2022/05/23 04:28:17;;;;;;;4.72;3.83;;;;;;;;;;4420118;32;20257;-51
2022/05/23 04:30:43;;;;;;;11.48;4.43;;;;;;;;;;4420038;32;20236;-53
2022/05/23 04:35:57;;;;;;;6.93;3.75;;;;;;;;;;4419591;32;20244;-53
2022/05/23 04:38:23;;;;;;;7.60;4.25;;;;;;;;;;4420048;32;20217;-52
2022/05/23 04:40:48;;;;;;;12.05;5.50;;;;;;;;;;4419700;32;20263;-52
2022/05/23 04:43:14;;;;;;;10.70;5.30;;;;;;;;;;4419663;32;20317;-52
2022/05/23 04:45:40;;;;;;;9.30;6.22;;;;;;;;;;4419069;32;20258;-52
2022/05/23 04:50:50;;;;;;;12.45;8.35;;;;;;;;;;4404592;32;20258;-52
2022/05/23 04:53:16;;;;;;;13.25;7.80;;;;;;;;;;4404693;32;20249;-52
2022/05/23 04:55:43;;;;;;;13.55;7.72;;;;;;;;;;4420813;32;20486;-52
2022/05/23 04:58:10;;;;;;;12.82;8.38;;;;;;;;;;4426800;32;20265;-51
2022/05/23 05:00:36;;;;;;;12.70;7.78;;;;;;;;;;4404041;32;20266;-52
2022/05/23 05:03:02;;;;;;;16.45;8.13;;;;;;;;;;4390838;32;20237;-51
2022/05/23 05:05:29;;;;;;;27.52;9.23;;;;;;;;;;4403644;32;20251;-53
2022/05/23 05:07:56;;;;;;;16.20;9.15;;;;;;;;;;4403712;32;20299;-53
2022/05/23 05:10:23;;;;;;;17.67;8.90;;;;;;;;;;4410332;32;20247;-53
2022/05/23 05:12:49;;;;;;;15.43;8.80;;;;;;;;;;4419034;32;20241;-53
2022/05/23 05:15:15;;;;;;;17.85;10.00;;;;;;;;;;4418689;32;20301;-53
2022/05/23 05:17:40;;;;;;;19.60;9.60;;;;;;;;;;4419113;32;20423;-53
2022/05/23 05:20:08;;;;;;;15.25;9.35;;;;;;;;;;4419207;32;20314;-52
2022/05/23 05:22:35;;;;;;;16.92;10.15;;;;;;;;;;4418958;32;20685;-54
2022/05/23 05:25:00;;;;;;;14.27;9.98;;;;;;;;;;4418961;32;20358;-52
2022/05/23 05:27:26;;;;;;;13.68;7.82;;;;;;;;;;4418487;32;20815;-53
2022/05/23 05:29:51;;;;;;;15.05;9.50;;;;;;;;;;4418524;32;20605;-52
2022/05/23 05:32:26;;;;;;;18.17;7.72;;;;;;;;;;4418636;32;20233;-52
2022/05/23 05:34:59;;;;;;;17.50;7.87;;;;;;;;;;4418285;32;20623;-54
2022/05/23 05:37:30;;;;;;;15.68;8.15;;;;;;;;;;4418705;32;20248;-52
2022/05/23 05:39:58;;;;;;;13.35;8.75;;;;;;;;;;4418619;32;20629;-52
2022/05/23 05:42:30;;;;;;;13.95;8.20;;;;;;;;;;4417622;32;20293;-52
2022/05/23 05:45:11;;;;;;;13.38;9.07;;;;;;;;;;4413522;32;20212;-53
2022/05/23 05:47:40;;;;;;;15.88;9.02;;;;;;;;;;4404455;32;20241;-54
2022/05/23 05:50:11;;;;;;;34.78;12.50;;;;;;;;;;4404799;32;20723;-53
2022/05/23 05:52:38;;;;;;;47.00;13.50;;;;;;;;;;4416923;32;20261;-54
2022/05/23 05:55:05;;;;;;;44.10;14.95;;;;;;;;;;4418783;32;20239;-54
2022/05/23 05:57:31;;;;;;;35.42;13.50;;;;;;;;;;4419627;32;20598;-54
2022/05/23 05:59:56;;;;;;;30.35;12.37;;;;;;;;;;4419498;32;20284;-53
2022/05/23 06:02:22;;;;;;;24.45;10.95;;;;;;;;;;4419119;32;20614;-53
2022/05/23 06:04:47;;;;;;;26.60;10.45;;;;;;;;;;4419034;32;20276;-54
2022/05/23 06:12:58;;;;;;;12.90;6.90;;;;;;;;;;4418201;32;20302;-53
2022/05/23 06:15:24;;;;;;;11.18;6.07;;;;;;;;;;4418701;32;20212;-53
2022/05/23 06:17:51;;;;;;;5.78;5.00;;;;;;;;;;4418749;32;20546;-54
2022/05/23 06:20:18;;;;;;;9.77;6.00;;;;;;;;;;4418829;32;20221;-53
2022/05/23 06:22:44;;;;;;;9.50;6.57;;;;;;;;;;4419163;32;20260;-53
2022/05/23 06:25:11;;;;;;;9.95;5.70;;;;;;;;;;4418978;32;20200;-54
2022/05/23 06:27:36;;;;;;;10.13;5.78;;;;;;;;;;4418936;32;20296;-53
2022/05/23 06:30:05;;;;;;;9.15;6.28;;;;;;;;;;4418447;32;20648;-53
2022/05/23 06:32:30;;;;;;;11.85;6.28;;;;;;;;;;4419185;32;20365;-54
2022/05/23 06:34:56;;;;;;;18.17;8.10;;;;;;;;;;4418953;32;20291;-53
2022/05/23 06:37:23;;;;;;;21.92;9.05;;;;;;;;;;4418929;32;20237;-54
2022/05/23 06:39:49;;;;;;;14.00;7.25;;;;;;;;;;4418444;32;20228;-53
2022/05/23 06:42:15;;;;;;;14.20;7.28;;;;;;;;;;4417379;32;20608;-53
2022/05/23 06:44:40;;;;;;;13.23;8.70;;;;;;;;;;4415124;32;20309;-55
2022/05/23 06:47:05;;;;;;;12.15;9.07;;;;;;;;;;4390892;32;20378;-53
2022/05/23 06:49:31;;;;;;;15.48;8.55;;;;;;;;;;4432951;32;20255;-54
2022/05/23 06:51:56;;;;;;;18.05;9.70;;;;;;;;;;4432710;32;20243;-53
2022/05/23 06:54:23;;;;;;;13.48;8.52;;;;;;;;;;4432949;32;20272;-53
2022/05/23 06:56:49;;;;;;;17.12;8.68;;;;;;;;;;4432129;32;20197;-53
2022/05/23 06:59:17;;;;;;;17.00;7.40;;;;;;;;;;4421712;32;20543;-54
2022/05/23 07:01:42;;;;;;;16.00;10.30;;;;;;;;;;4417606;32;20232;-52
2022/05/23 07:04:08;;;;;;;15.10;10.73;;;;;;;;;;4402567;32;20589;-53
2022/05/23 07:12:23;;;;;;;15.02;9.43;;;;;;;;;;4416862;32;20247;-53
2022/05/23 07:14:50;;;;;;;11.45;8.85;;;;;;;;;;4401493;32;20566;-53
2022/05/23 07:17:16;;;;;;;13.18;9.50;;;;;;;;;;4415691;32;20260;-53
2022/05/23 07:19:42;;;;;;;11.10;8.27;;;;;;;;;;4415306;32;20349;-53
2022/05/23 07:22:08;;;;;;;6.45;5.82;;;;;;;;;;4415316;32;20827;-54
2022/05/23 07:24:34;;;;;;;11.00;5.90;;;;;;;;;;4415511;32;20291;-53
2022/05/23 07:27:00;;;;;;;7.10;4.87;;;;;;;;;;4415113;32;20284;-54
2022/05/23 07:29:27;;;;;;;10.10;5.22;;;;;;;;;;4415095;32;20308;-53
2022/05/23 07:31:53;;;;;;;5.95;5.35;;;;;;;;;;4416392;32;20732;-53
2022/05/23 07:34:19;;;;;;;8.60;5.95;;;;;;;;;;4417129;32;20309;-53
2022/05/23 07:36:45;;;;;;;7.50;5.05;;;;;;;;;;4417453;32;20234;-53
2022/05/23 07:39:12;;;;;;;10.43;5.28;;;;;;;;;;4417016;32;20699;-52
2022/05/23 07:41:39;;;;;;;6.47;5.10;;;;;;;;;;4415533;32;20217;-53
2022/05/23 07:44:08;;;;;;;7.78;5.03;;;;;;;;;;4420024;32;20228;-53
2022/05/23 07:46:34;;;;;;;9.00;4.65;;;;;;;;;;4397254;32;20736;-52
2022/05/23 07:49:00;;;;;;;8.55;5.37;;;;;;;;;;4400578;32;20233;-53
2022/05/23 07:51:29;;;;;;;11.32;6.75;;;;;;;;;;4401441;32;20222;-52
2022/05/23 08:02:10;;;;;;;11.00;6.72;;;;;;;;;;4402086;32;20286;-53
2022/05/23 08:04:36;;;;;;;7.93;5.40;;;;;;;;;;4416488;32;20254;-53
2022/05/23 08:07:02;;;;;;;9.60;7.03;;;;;;;;;;4403339;32;20349;-53
2022/05/23 08:09:28;;;;;;;9.05;7.53;;;;;;;;;;4401370;32;20236;-54
2022/05/23 08:11:54;;;;;;;9.82;6.05;;;;;;;;;;4415187;32;20201;-54
2022/05/23 08:14:20;;;;;;;9.00;6.40;;;;;;;;;;4416663;32;20226;-53
2022/05/23 08:16:46;;;;;;;7.45;5.93;;;;;;;;;;4416468;32;20515;-54
2022/05/23 08:19:12;;;;;;;8.00;6.05;;;;;;;;;;4418358;32;20213;-54
2022/05/23 08:21:44;;;;;;;9.40;7.10;;;;;;;;;;4419647;32;20305;-54
2022/05/23 08:24:10;;;;;;;8.82;6.43;;;;;;;;;;4419250;32;20260;-53
2022/05/23 08:26:35;;;;;;;8.57;6.80;;;;;;;;;;4418809;32;20617;-54
2022/05/23 08:29:01;;;;;;;8.45;5.65;;;;;;;;;;4419005;32;20438;-54
2022/05/23 08:31:27;;;;;;;9.88;5.72;;;;;;;;;;4418967;32;20272;-54
2022/05/23 08:33:52;;;;;;;9.57;6.03;;;;;;;;;;4419304;32;20244;-54
2022/05/23 08:36:18;;;;;;;9.65;6.37;;;;;;;;;;4418451;32;20244;-53
2022/05/23 08:38:43;;;;;;;8.35;5.82;;;;;;;;;;4418743;32;20233;-53
2022/05/23 08:41:15;;;;;;;8.70;5.65;;;;;;;;;;4418562;32;20613;-55
2022/05/23 08:43:51;;;;;;;14.60;6.93;;;;;;;;;;4418848;32;20217;-54
2022/05/23 08:46:25;;;;;;;12.75;9.15;;;;;;;;;;4406640;32;20214;-53
2022/05/23 08:49:15;;;;;;;17.42;9.48;;;;;;;;;;4403953;32;20307;-53
2022/05/23 08:51:48;;;;;;;16.55;11.80;;;;;;;;;;4403734;32;20473;-54
2022/05/23 08:54:16;;;;;;;13.02;10.60;;;;;;;;;;4403966;32;20189;-53
2022/05/23 08:56:53;;;;;;;14.63;10.65;;;;;;;;;;4403554;32;20265;-54
2022/05/23 08:59:26;;;;;;;15.65;12.43;;;;;;;;;;4414371;32;20223;-54
2022/05/23 09:02:10;;;;;;;17.12;11.45;;;;;;;;;;4418665;32;20231;-54
2022/05/23 09:05:13;;;;;;;14.05;11.30;;;;;;;;;;4419217;32;20265;-54
2022/05/23 09:07:42;;;;;;;15.45;10.32;;;;;;;;;;4386922;32;20565;-53
2022/05/23 09:10:30;;;;;;;19.33;9.88;;;;;;;;;;4418559;32;20314;-55
2022/05/23 09:12:56;;;;;;;11.82;9.88;;;;;;;;;;4418269;32;20225;-54
2022/05/23 09:15:23;;;;;;;15.55;10.57;;;;;;;;;;4418551;32;20252;-55
2022/05/23 09:17:56;;;;;;;11.05;9.95;;;;;;;;;;4418932;32;20641;-53
2022/05/23 09:20:35;;;;;;;11.70;8.45;;;;;;;;;;4418330;32;20549;-55
2022/05/23 09:23:06;;;;;;;12.85;8.10;;;;;;;;;;4418399;32;20349;-54
2022/05/23 09:25:31;;;;;;;10.77;8.45;;;;;;;;;;4418194;32;20295;-55
2022/05/23 09:28:19;;;;;;;8.68;7.20;;;;;;;;;;4418208;32;20237;-53
2022/05/23 09:30:48;;;;;;;11.65;7.00;;;;;;;;;;4417609;32;20583;-54
2022/05/23 09:33:20;;;;;;;15.15;8.70;;;;;;;;;;4418223;32;20304;-54
2022/05/23 09:35:45;;;;;;;11.25;8.43;;;;;;;;;;4407770;32;20236;-53
2022/05/23 09:38:18;;;;;;;10.00;7.75;;;;;;;;;;4418277;32;20362;-53
2022/05/23 09:40:44;;;;;;;11.23;7.80;;;;;;;;;;4403868;32;20282;-54
2022/05/23 09:49:06;;;;;;;11.30;7.35;;;;;;;;;;4402570;32;20291;-53
2022/05/23 09:51:32;;;;;;;10.93;7.32;;;;;;;;;;4408945;32;20288;-53
2022/05/23 09:54:03;;;;;;;15.50;10.38;;;;;;;;;;4418216;32;20244;-53
2022/05/23 09:56:40;;;;;;;15.68;7.82;;;;;;;;;;4404699;32;20205;-53
2022/05/23 09:59:10;;;;;;;11.77;7.18;;;;;;;;;;4402213;32;20259;-52
2022/05/23 10:01:36;;;;;;;7.10;6.28;;;;;;;;;;4402393;32;20201;-52
2022/05/23 10:04:14;;;;;;;10.10;7.32;;;;;;;;;;4414101;32;20226;-52
2022/05/23 10:06:46;;;;;;;9.93;7.40;;;;;;;;;;4417629;32;20224;-53
2022/05/23 10:09:24;;;;;;;9.75;6.80;;;;;;;;;;4418069;32;20205;-52
2022/05/23 10:11:57;;;;;;;9.85;6.90;;;;;;;;;;4417346;32;20648;-54
2022/05/23 10:14:24;;;;;;;14.98;6.87;;;;;;;;;;4417820;32;20209;-54
2022/05/23 10:16:56;;;;;;;10.43;6.85;;;;;;;;;;4417585;32;20276;-53
2022/05/23 10:19:36;;;;;;;7.07;6.37;;;;;;;;;;4417998;32;20759;-53
2022/05/23 10:22:09;;;;;;;16.60;7.32;;;;;;;;;;4417770;32;20213;-54
2022/05/23 10:24:37;;;;;;;18.77;7.18;;;;;;;;;;4417043;32;20213;-53
2022/05/23 10:27:08;;;;;;;12.57;7.25;;;;;;;;;;4416915;32;20605;-53
2022/05/23 10:29:33;;;;;;;15.80;7.78;;;;;;;;;;4415168;32;20213;-53
2022/05/23 10:32:11;;;;;;;9.68;7.32;;;;;;;;;;4404054;32;20305;-53
2022/05/23 10:35:09;;;;;;;13.50;5.95;;;;;;;;;;4414140;32;20354;-54
2022/05/23 10:37:40;;;;;;;7.65;6.82;;;;;;;;;;4413308;32;20535;-53
2022/05/23 10:43:05;;;;;;;8.35;4.53;;;;;;;;;;4417368;32;20310;-54
2022/05/23 10:46:03;;;;;;;5.57;4.60;;;;;;;;;;4409990;32;20280;-54
2022/05/23 10:48:41;;;;;;;4.00;3.40;;;;;;;;;;4402409;32;20338;-53
2022/05/23 10:51:35;;;;;;;7.80;4.05;;;;;;;;;;4406100;32;20236;-54
2022/05/23 10:54:29;;;;;;;4.85;3.80;;;;;;;;;;4417978;32;20701;-54
2022/05/23 10:57:33;;;;;;;5.53;4.32;;;;;;;;;;4417545;32;20232;-55
2022/05/23 11:00:06;;;;;;;4.03;3.62;;;;;;;;;;4412191;32;20235;-54
2022/05/23 11:02:39;;;;;;;4.22;3.40;;;;;;;;;;4417641;32;20213;-54
2022/05/23 11:05:44;;;;;;;7.00;4.12;;;;;;;;;;4412078;32;20217;-53
2022/05/23 11:08:10;;;;;;;5.12;3.62;;;;;;;;;;4380879;32;20318;-52
2022/05/23 11:11:03;;;;;;;4.30;2.95;;;;;;;;;;4402842;32;20289;-54
2022/05/23 11:14:01;;;;;;;4.07;3.53;;;;;;;;;;4405683;32;20637;-54
2022/05/23 11:16:56;;;;;;;7.78;4.03;;;;;;;;;;4417941;32;20743;-55
2022/05/23 11:19:31;;;;;;;4.90;4.07;;;;;;;;;;4417674;32;20449;-54
2022/05/23 11:22:03;;;;;;;6.12;4.60;;;;;;;;;;4417888;32;20636;-54
2022/05/23 11:24:44;;;;;;;10.65;7.32;;;;;;;;;;4418291;32;20239;-55
2022/05/23 11:35:47;;;;;;;8.45;4.37;;;;;;;;;;4418220;32;20289;-54
2022/05/23 11:38:14;;;;;;;4.00;3.60;;;;;;;;;;4418019;32;20260;-54
2022/05/23 11:40:39;;;;;;;4.40;3.87;;;;;;;;;;4417910;32;20205;-54
2022/05/23 11:43:10;;;;;;;4.57;3.70;;;;;;;;;;4417965;32;20275;-54
2022/05/23 11:48:39;;;;;;;4.80;3.47;;;;;;;;;;4411874;32;20333;-54
2022/05/23 11:51:36;;;;;;;8.23;3.72;;;;;;;;;;4417828;32;20209;-54
2022/05/23 11:54:03;;;;;;;10.50;3.55;;;;;;;;;;4418959;32;20299;-54
2022/05/23 11:56:32;;;;;;;4.75;3.00;;;;;;;;;;4420387;32;20220;-53
2022/05/23 11:58:57;;;;;;;7.70;4.28;;;;;;;;;;4420643;32;20237;-53
2022/05/23 12:01:26;;;;;;;4.57;3.47;;;;;;;;;;4420921;32;20609;-54
2022/05/23 12:03:52;;;;;;;4.70;3.53;;;;;;;;;;4420918;32;20256;-54
2022/05/23 12:06:19;;;;;;;3.80;3.22;;;;;;;;;;4412353;32;20244;-53
2022/05/23 12:09:11;;;;;;;4.72;3.60;;;;;;;;;;4405741;32;20248;-53
2022/05/23 12:11:40;;;;;;;5.40;3.40;;;;;;;;;;4419703;32;20300;-53
2022/05/23 12:14:11;;;;;;;3.83;3.42;;;;;;;;;;4420369;32;20828;-54
2022/05/23 12:16:40;;;;;;;6.28;4.22;;;;;;;;;;4420413;32;20659;-54
2022/05/23 12:19:08;;;;;;;4.07;3.30;;;;;;;;;;4420700;32;20611;-55
2022/05/23 12:21:36;;;;;;;5.90;3.67;;;;;;;;;;4420752;32;20648;-55
2022/05/23 12:24:23;;;;;;;4.68;3.35;;;;;;;;;;4412281;32;20364;-55
2022/05/23 12:26:53;;;;;;;8.07;4.15;;;;;;;;;;4404938;32;20267;-54
2022/05/23 12:29:32;;;;;;;5.80;3.15;;;;;;;;;;4405259;32;20214;-54
2022/05/23 12:32:10;;;;;;;7.97;3.20;;;;;;;;;;4405215;32;20288;-54
2022/05/23 12:34:41;;;;;;;9.40;3.08;;;;;;;;;;4405410;32;20235;-54
2022/05/23 12:37:15;;;;;;;4.15;3.05;;;;;;;;;;4390909;32;20496;-54
2022/05/23 12:40:06;;;;;;;4.68;3.58;;;;;;;;;;4404796;32;20193;-54
2022/05/23 12:43:03;;;;;;;6.68;3.58;;;;;;;;;;4377416;32;20242;-54
2022/05/23 12:46:04;;;;;;;5.75;3.78;;;;;;;;;;4418947;32;20243;-54
2022/05/23 12:48:44;;;;;;;5.22;3.45;;;;;;;;;;4420086;32;20293;-53
2022/05/23 12:51:35;;;;;;;6.43;4.35;;;;;;;;;;4417292;32;20255;-54
2022/05/23 12:54:13;;;;;;;4.85;3.55;;;;;;;;;;4419721;32;20307;-53
2022/05/23 12:57:00;;;;;;;8.00;4.15;;;;;;;;;;4419727;32;20644;-53
2022/05/23 12:59:39;;;;;;;6.37;3.87;;;;;;;;;;4419900;32;20221;-53
2022/05/23 13:02:14;;;;;;;12.70;4.87;;;;;;;;;;4420173;32;20201;-53
2022/05/23 13:04:47;;;;;;;7.87;4.03;;;;;;;;;;4420032;32;20398;-53
2022/05/23 13:07:23;;;;;;;6.62;4.65;;;;;;;;;;4403102;32;20300;-53
2022/05/23 13:10:02;;;;;;;7.97;4.87;;;;;;;;;;4404029;32;20186;-54
2022/05/23 13:12:38;;;;;;;5.65;5.05;;;;;;;;;;4404589;32;20260;-54
2022/05/23 13:15:04;;;;;;;6.95;3.87;;;;;;;;;;4417589;32;20213;-53
2022/05/23 13:17:29;;;;;;;6.93;4.18;;;;;;;;;;4420037;32;20255;-54
2022/05/23 13:22:39;;;;;;;6.12;3.15;;;;;;;;;;4429304;32;20248;-54
2022/05/23 13:25:05;;;;;;;11.35;3.87;;;;;;;;;;4434375;32;20295;-54
2022/05/23 13:27:50;;;;;;;5.03;3.90;;;;;;;;;;4434986;32;20231;-53
2022/05/23 13:30:15;;;;;;;6.07;3.65;;;;;;;;;;4421213;32;20200;-54
2022/05/23 13:32:40;;;;;;;6.18;2.87;;;;;;;;;;4420611;32;20774;-53
2022/05/23 13:35:36;;;;;;;5.25;3.95;;;;;;;;;;4434643;32;20312;-53
2022/05/23 13:38:29;;;;;;;6.10;3.55;;;;;;;;;;4412791;32;20232;-54
2022/05/23 13:41:04;;;;;;;5.55;3.35;;;;;;;;;;4398896;32;20659;-53
2022/05/23 13:43:41;;;;;;;5.95;3.83;;;;;;;;;;4419411;32;20281;-54
2022/05/23 13:46:18;;;;;;;5.43;4.00;;;;;;;;;;4407404;32;20308;-54
2022/05/23 13:48:55;;;;;;;9.52;3.62;;;;;;;;;;4413944;32;20248;-54
2022/05/23 13:51:25;;;;;;;4.20;3.47;;;;;;;;;;4418999;32;20205;-55
2022/05/23 13:54:26;;;;;;;6.35;4.00;;;;;;;;;;4418975;32;20297;-53
2022/05/23 13:57:01;;;;;;;9.20;3.85;;;;;;;;;;4405758;32;20281;-53
2022/05/23 13:59:30;;;;;;;11.10;4.43;;;;;;;;;;4407047;32;20240;-53
2022/05/23 14:02:00;;;;;;;8.75;3.95;;;;;;;;;;4404466;32;20281;-53
2022/05/23 14:04:30;;;;;;;7.75;4.30;;;;;;;;;;4419160;32;20386;-53
2022/05/23 14:07:07;;;;;;;4.55;3.67;;;;;;;;;;4416420;32;20286;-53
2022/05/23 14:09:34;;;;;;;9.75;3.50;;;;;;;;;;4416794;32;20491;-53
2022/05/23 14:12:05;;;;;;;6.68;4.28;;;;;;;;;;4418298;32;20673;-55
2022/05/23 14:14:39;;;;;;;11.43;4.55;;;;;;;;;;4418632;32;20339;-54
2022/05/23 14:17:21;;;;;;;11.40;4.18;;;;;;;;;;4408883;32;20274;-54
2022/05/23 14:19:50;;;;;;;7.03;4.25;;;;;;;;;;4433643;32;20204;-54
2022/05/23 14:22:21;;;;;;;5.62;4.10;;;;;;;;;;4433408;32;20290;-54
2022/05/23 14:24:50;;;;;;;6.22;4.10;;;;;;;;;;4433425;32;20213;-54
2022/05/23 14:27:27;;;;;;;5.50;4.32;;;;;;;;;;4433124;32;20662;-54
2022/05/23 14:30:19;;;;;;;6.05;3.85;;;;;;;;;;4433645;32;20197;-54
2022/05/23 14:32:57;;;;;;;5.87;4.10;;;;;;;;;;4433778;32;20244;-54
2022/05/23 14:35:26;;;;;;;5.37;4.25;;;;;;;;;;4432194;32;20235;-54
2022/05/23 14:37:53;;;;;;;8.60;3.92;;;;;;;;;;4419109;32;20348;-54
2022/05/23 14:40:27;;;;;;;18.62;4.70;;;;;;;;;;4417877;32;20258;-54
2022/05/23 14:42:53;;;;;;;6.18;3.78;;;;;;;;;;4418121;32;20249;-53
2022/05/23 14:45:21;;;;;;;6.22;3.62;;;;;;;;;;4420423;32;20278;-53
2022/05/23 14:48:17;;;;;;;5.62;3.60;;;;;;;;;;4404150;32;20248;-53
2022/05/23 14:51:04;;;;;;;6.35;3.78;;;;;;;;;;4416800;32;20645;-53
2022/05/23 14:56:44;;;;;;;10.25;3.92;;;;;;;;;;4393755;32;20240;-53
2022/05/23 15:02:01;;;;;;;4.85;4.18;;;;;;;;;;4418006;32;20258;-52
2022/05/23 15:04:29;;;;;;;9.60;4.72;;;;;;;;;;4417967;32;20225;-53
2022/05/23 15:06:57;;;;;;;8.38;3.78;;;;;;;;;;4415380;32;20329;-54
2022/05/23 15:09:24;;;;;;;4.53;3.83;;;;;;;;;;4417387;32;20543;-53
2022/05/23 15:11:50;;;;;;;6.05;4.32;;;;;;;;;;4415800;32;20209;-54
2022/05/23 15:14:16;;;;;;;9.10;4.62;;;;;;;;;;4416631;32;20231;-54
2022/05/23 15:16:42;;;;;;;10.05;4.93;;;;;;;;;;4433428;32;20228;-54
2022/05/23 15:19:09;;;;;;;4.87;3.90;;;;;;;;;;4433304;32;20232;-54
2022/05/23 15:21:36;;;;;;;12.40;5.05;;;;;;;;;;4433137;32;20208;-53
2022/05/23 15:24:01;;;;;;;6.15;4.82;;;;;;;;;;4432694;32;20348;-54
2022/05/23 15:26:31;;;;;;;6.20;3.80;;;;;;;;;;4433515;32;20209;-56
2022/05/23 15:28:58;;;;;;;7.72;3.75;;;;;;;;;;4435013;32;20236;-53
2022/05/23 15:31:25;;;;;;;4.25;3.47;;;;;;;;;;4436289;32;20255;-54
2022/05/23 15:33:53;;;;;;;6.15;4.20;;;;;;;;;;4423637;32;20644;-53
2022/05/23 15:36:19;;;;;;;8.60;3.15;;;;;;;;;;4420414;32;20201;-53
2022/05/23 15:38:45;;;;;;;5.50;3.60;;;;;;;;;;4420673;32;20342;-53
2022/05/23 15:41:11;;;;;;;6.50;4.10;;;;;;;;;;4420884;32;20216;-53
2022/05/23 15:43:37;;;;;;;6.80;4.15;;;;;;;;;;4421720;32;20225;-54
2022/05/23 15:46:07;;;;;;;8.57;4.70;;;;;;;;;;4410096;32;20205;-53
2022/05/23 15:48:33;;;;;;;6.37;4.12;;;;;;;;;;4406005;32;20257;-54
2022/05/23 15:50:58;;;;;;;7.03;4.53;;;;;;;;;;4405956;32;20200;-54
2022/05/23 15:53:24;;;;;;;5.55;3.83;;;;;;;;;;4405590;32;20229;-54
2022/05/23 15:55:52;;;;;;;11.23;4.62;;;;;;;;;;4415707;32;20205;-54
2022/05/23 15:58:19;;;;;;;6.20;4.50;;;;;;;;;;4421130;32;20652;-54
2022/05/23 16:00:45;;;;;;;4.45;3.92;;;;;;;;;;4420621;32;20212;-54
2022/05/23 16:03:11;;;;;;;8.52;4.47;;;;;;;;;;4420681;32;20752;-55
2022/05/23 16:05:38;;;;;;;10.80;4.40;;;;;;;;;;4416994;32;20229;-54